Charlotte, Vermont
Current Conditions -  °F | °C
As of 12:54 AM on Wednesday 22 Oct 2014 (Local Time) from KBTV Reporting Station
Overcast Overcast  
Wind Chill: 43°   Ceiling: 400
Heat Index: 47°   Visibility: 8mi
Dew Point: 45°   Wind: 9mph
Humidity: 93%   Direction: 340°NNW
Pressure: 30.1"   Gusts: NA
Location:  44.31°N, 73.26°W
Report Text: KBTV 220454Z 34008KT 8SM OVC004 08/07 A3010 RMK AO2 RAE31 SLP194 P0000 T00830072 401000072 $
Loading
Personal Weather Stations






























Interactive Weather Map
Tropical Storm Tracking
New forecast layout! Learn more

10-Day Weather Forecast

Advertisements
Track Severe Weather on mobile